Time;durP1;ratioP1;P1;durP2;ratioP2;P2;SDS_P1;SDS_P2;PMS_P1;PMS_P2;Temp;Humidity;BMP_temperature;BMP_pressure;BME280_temperature;BME280_humidity;BME280_pressure;Samples;Min_cycle;Max_cycle;Signal;HPM_P1;HPM_P2
2023/08/07 00:01:42;;;;;;;;;;;;;;;25.59;43.42;98619.94;5052359;28;19962;-78
2023/08/07 00:04:08;;;;;;;;;;;;;;;25.54;42.42;98624.63;5052347;28;19912;-76
2023/08/07 00:06:33;;;;;;;;;;;;;;;25.56;42.92;98631.34;5052394;28;19920;-76
2023/08/07 00:08:58;;;;;;;;;;;;;;;25.57;42.83;98627.53;5052334;28;20397;-76
2023/08/07 00:11:23;;;;;;;;;;;;;;;25.58;42.80;98629.13;5052258;28;19909;-76
2023/08/07 00:13:49;;;;;;;;;;;;;;;25.51;42.63;98625.22;5052240;28;19909;-77
2023/08/07 00:16:14;;;;;;;;;;;;;;;25.47;42.41;98630.41;5052709;28;19998;-76
2023/08/07 00:18:39;;;;;;;;;;;;;;;25.41;41.91;98638.91;5052190;28;19916;-77
2023/08/07 00:21:04;;;;;;;;;;;;;;;25.43;41.61;98639.41;5052172;28;20500;-77
2023/08/07 00:23:30;;;;;;;;;;;;;;;25.41;41.46;98631.59;5052152;28;19917;-76
2023/08/07 00:25:55;;;;;;;;;;;;;;;25.37;41.43;98643.31;5034210;28;19916;-76
2023/08/07 00:28:20;;;;;;;;;;;;;;;25.39;41.07;98638.41;5051895;28;19948;-77
2023/08/07 00:30:45;;;;;;;;;;;;;;;25.38;41.26;98642.22;5051856;28;19916;-78
2023/08/07 00:33:11;;;;;;;;;;;;;;;25.17;40.49;98636.31;5050658;28;20008;-78
2023/08/07 00:35:36;;;;;;;;;;;;;;;25.23;40.47;98644.03;5051922;28;20348;-75
2023/08/07 00:38:01;;;;;;;;;;;;;;;25.26;41.28;98650.75;5051940;28;19901;-77
2023/08/07 00:40:27;;;;;;;;;;;;;;;25.23;39.88;98645.94;5051931;28;19909;-77
2023/08/07 00:42:52;;;;;;;;;;;;;;;25.26;41.47;98645.34;5051694;28;20304;-77
2023/08/07 00:45:17;;;;;;;;;;;;;;;25.14;40.04;98653.94;5051574;28;19920;-77
2023/08/07 00:47:43;;;;;;;;;;;;;;;25.18;40.58;98654.94;5051820;28;19908;-77
2023/08/07 00:50:08;;;;;;;;;;;;;;;25.19;40.59;98653.84;5051781;28;19909;-77
2023/08/07 00:52:34;;;;;;;;;;;;;;;25.20;40.99;98660.03;5051849;28;20301;-77
2023/08/07 00:54:59;;;;;;;;;;;;;;;25.17;40.56;98666.84;5051549;28;20576;-78
2023/08/07 00:57:25;;;;;;;;;;;;;;;25.10;40.12;98658.31;5051654;28;20412;-78
2023/08/07 00:59:50;;;;;;;;;;;;;;;24.98;41.00;98666.06;5033635;28;19920;-77
2023/08/07 01:02:16;;;;;;;;;;;;;;;24.99;40.36;98673.06;5051557;28;19916;-77
2023/08/07 01:04:42;;;;;;;;;;;;;;;24.95;40.17;98670.13;5051346;28;20373;-77
2023/08/07 01:07:07;;;;;;;;;;;;;;;24.94;41.02;98700.13;5033460;28;20301;-77
2023/08/07 01:09:33;;;;;;;;;;;;;;;24.85;40.60;98677.56;5051264;28;19908;-77
2023/08/07 01:12:06;;;;;;;;;;;;;;;24.85;41.29;98683.78;5051469;28;19909;-77
2023/08/07 01:14:36;;;;;;;;;;;;;;;24.88;40.55;98679.69;5051679;28;19919;-77
2023/08/07 01:17:05;;;;;;;;;;;;;;;24.87;40.72;98702.38;5051735;28;19916;-77
2023/08/07 01:19:31;;;;;;;;;;;;;;;24.78;40.78;98687.94;5033913;28;19916;-77
2023/08/07 01:22:13;;;;;;;;;;;;;;;24.70;40.43;98687.50;5051994;28;19913;-78
2023/08/07 01:24:39;;;;;;;;;;;;;;;24.68;40.22;98695.09;5051661;28;19952;-78
2023/08/07 01:27:25;;;;;;;;;;;;;;;24.60;40.39;98693.03;5051483;28;19944;-77
2023/08/07 01:30:09;;;;;;;;;;;;;;;24.61;40.26;98700.03;5050868;28;19916;-78
2023/08/07 01:32:40;;;;;;;;;;;;;;;24.60;40.47;98701.13;5051666;28;19919;-75
2023/08/07 01:35:05;;;;;;;;;;;;;;;24.53;40.06;98703.38;5051524;28;19916;-78
2023/08/07 01:37:33;;;;;;;;;;;;;;;24.59;40.60;98706.81;5051418;28;19905;-77
2023/08/07 01:40:00;;;;;;;;;;;;;;;24.60;41.13;98706.53;5051561;28;19909;-77
2023/08/07 01:42:26;;;;;;;;;;;;;;;24.62;41.06;98709.75;5051422;28;20034;-78
2023/08/07 01:44:51;;;;;;;;;;;;;;;24.63;40.91;98705.94;5051420;28;20364;-77
2023/08/07 01:47:16;;;;;;;;;;;;;;;24.70;40.96;98706.38;5051310;28;19916;-78
2023/08/07 01:49:42;;;;;;;;;;;;;;;24.63;41.23;98721.34;5051150;28;20023;-78
2023/08/07 01:52:08;;;;;;;;;;;;;;;24.51;40.78;98702.84;5049958;28;19978;-78
2023/08/07 01:54:33;;;;;;;;;;;;;;;24.58;41.54;98707.91;5051051;28;19916;-76
2023/08/07 01:56:58;;;;;;;;;;;;;;;24.61;40.84;98712.72;5051239;28;19946;-77
2023/08/07 01:59:23;;;;;;;;;;;;;;;24.58;41.21;98721.41;5019034;28;20391;-76
2023/08/07 02:01:49;;;;;;;;;;;;;;;24.53;41.13;98719.56;5011353;28;19909;-77
2023/08/07 02:04:14;;;;;;;;;;;;;;;24.55;41.38;98722.78;5011648;28;20075;-79
2023/08/07 02:06:39;;;;;;;;;;;;;;;24.54;41.46;98725.78;5011969;28;20067;-77
2023/08/07 02:09:04;;;;;;;;;;;;;;;24.53;41.21;98726.88;5014902;28;19909;-78
2023/08/07 02:11:30;;;;;;;;;;;;;;;24.49;41.49;98734.72;5014859;28;20364;-78
2023/08/07 02:13:55;;;;;;;;;;;;;;;24.46;41.87;98732.59;5013716;28;19975;-78
2023/08/07 02:16:20;;;;;;;;;;;;;;;24.48;41.54;98743.91;5015017;28;19909;-78
2023/08/07 02:18:46;;;;;;;;;;;;;;;24.44;41.92;98742.06;5013645;28;19951;-77
2023/08/07 02:21:11;;;;;;;;;;;;;;;24.37;41.99;98745.09;5014680;28;20000;-77
2023/08/07 02:23:36;;;;;;;;;;;;;;;24.42;42.19;98752.34;5014752;28;20432;-77
2023/08/07 02:26:01;;;;;;;;;;;;;;;24.30;42.22;98741.97;5014605;28;19916;-77
2023/08/07 02:28:27;;;;;;;;;;;;;;;24.27;42.44;98745.22;5013921;28;19909;-77
2023/08/07 02:30:54;;;;;;;;;;;;;;;24.29;42.50;98743.84;5022130;28;19912;-77
2023/08/07 02:33:19;;;;;;;;;;;;;;;24.29;42.59;98745.75;5019903;28;20307;-76
2023/08/07 02:35:45;;;;;;;;;;;;;;;24.24;42.75;98762.75;5013491;28;19915;-77
2023/08/07 02:38:10;;;;;;;;;;;;;;;24.25;42.71;98750.06;5015108;28;19919;-77
2023/08/07 02:40:36;;;;;;;;;;;;;;;24.16;42.96;98754.50;5014907;28;19910;-78
2023/08/07 02:43:01;;;;;;;;;;;;;;;24.19;43.09;98753.91;5014650;28;19909;-78
2023/08/07 02:45:26;;;;;;;;;;;;;;;24.07;43.11;98768.59;5014368;28;19913;-77
2023/08/07 02:47:51;;;;;;;;;;;;;;;24.09;43.21;98777.22;5014386;28;19917;-78
2023/08/07 02:50:17;;;;;;;;;;;;;;;24.12;43.28;98775.84;5013242;28;20395;-77
2023/08/07 02:52:42;;;;;;;;;;;;;;;24.12;43.26;98778.53;5014880;28;19931;-78
2023/08/07 02:55:07;;;;;;;;;;;;;;;24.07;43.20;98795.56;5025297;28;19916;-77
2023/08/07 02:57:33;;;;;;;;;;;;;;;24.08;43.52;98802.56;5012788;28;19909;-77
2023/08/07 02:59:58;;;;;;;;;;;;;;;23.91;43.81;98807.59;5012698;28;19963;-77
2023/08/07 03:02:23;;;;;;;;;;;;;;;23.75;44.40;98822.25;5012676;28;19996;-77
2023/08/07 03:04:48;;;;;;;;;;;;;;;23.77;44.03;98815.47;5013748;28;20405;-77
2023/08/07 03:07:13;;;;;;;;;;;;;;;23.86;43.99;98829.19;5014007;28;19910;-78
2023/08/07 03:09:39;;;;;;;;;;;;;;;23.85;44.00;98824.09;5013671;28;19970;-77
2023/08/07 03:12:04;;;;;;;;;;;;;;;23.84;44.01;98827.88;5013609;28;19910;-77
2023/08/07 03:14:30;;;;;;;;;;;;;;;23.85;43.96;98832.16;5013546;28;19996;-77
2023/08/07 03:16:55;;;;;;;;;;;;;;;23.73;44.10;98829.81;5013457;28;20416;-77
2023/08/07 03:19:21;;;;;;;;;;;;;;;23.74;44.17;98826.03;5011035;28;20370;-77
2023/08/07 03:21:46;;;;;;;;;;;;;;;23.71;44.36;98831.97;5012124;28;19906;-77
2023/08/07 03:24:12;;;;;;;;;;;;;;;23.66;44.60;98830.13;5013207;28;20390;-78
2023/08/07 03:26:37;;;;;;;;;;;;;;;23.67;44.41;98826.34;5013787;28;19956;-78
2023/08/07 03:29:02;;;;;;;;;;;;;;;23.59;44.73;98828.84;5013703;28;20394;-78
2023/08/07 03:31:27;;;;;;;;;;;;;;;23.58;44.69;98833.41;5013673;28;19931;-78
2023/08/07 03:33:53;;;;;;;;;;;;;;;23.56;44.88;98840.16;5013483;28;19909;-77
2023/08/07 03:36:18;;;;;;;;;;;;;;;23.61;44.58;98849.03;5013371;28;19910;-78
2023/08/07 03:38:44;;;;;;;;;;;;;;;23.64;44.67;98836.88;5012202;28;19960;-77
2023/08/07 03:41:10;;;;;;;;;;;;;;;23.64;44.53;98845.78;5013543;28;19909;-78
2023/08/07 03:43:35;;;;;;;;;;;;;;;23.55;44.63;98843.94;5011926;28;19995;-78
2023/08/07 03:46:00;;;;;;;;;;;;;;;23.55;44.97;98850.16;5012994;28;19975;-77
2023/08/07 03:48:25;;;;;;;;;;;;;;;23.59;44.90;98853.09;5013098;28;19909;-78
2023/08/07 03:50:51;;;;;;;;;;;;;;;23.57;44.74;98849.88;5013082;28;20363;-78
2023/08/07 03:53:16;;;;;;;;;;;;;;;23.62;44.90;98860.63;5013124;28;19916;-77
2023/08/07 03:55:41;;;;;;;;;;;;;;;23.54;44.94;98853.91;5012910;28;19910;-78
2023/08/07 03:58:07;;;;;;;;;;;;;;;23.52;45.19;98856.06;5014026;28;19910;-77
2023/08/07 04:00:32;;;;;;;;;;;;;;;23.57;44.91;98860.66;5052628;28;19999;-77
2023/08/07 04:02:58;;;;;;;;;;;;;;;23.54;45.05;98853.91;5052523;28;19915;-78
2023/08/07 04:05:23;;;;;;;;;;;;;;;23.56;45.03;98859.84;5052755;28;19919;-77
2023/08/07 04:07:48;;;;;;;;;;;;;;;23.56;44.90;98850.94;5052438;28;19909;-77
2023/08/07 04:10:14;;;;;;;;;;;;;;;23.46;44.91;98852.59;5052398;28;19908;-78
2023/08/07 04:12:39;;;;;;;;;;;;;;;23.43;45.28;98853.16;5052072;28;19919;-78
2023/08/07 04:15:05;;;;;;;;;;;;;;;23.38;45.07;98861.25;5052738;28;19908;-78
2023/08/07 04:17:30;;;;;;;;;;;;;;;23.44;45.01;98864.75;5034301;28;19912;-77
2023/08/07 04:19:55;;;;;;;;;;;;;;;23.39;45.15;98865.56;5052354;28;19961;-77
2023/08/07 04:22:20;;;;;;;;;;;;;;;23.38;45.17;98863.97;5052089;28;19908;-77
2023/08/07 04:24:46;;;;;;;;;;;;;;;23.43;45.01;98865.81;5051881;28;19919;-78
2023/08/07 04:27:12;;;;;;;;;;;;;;;23.48;44.73;98864.97;5051965;28;20377;-77
2023/08/07 04:29:37;;;;;;;;;;;;;;;23.50;44.64;98862.81;5051614;28;19908;-78
2023/08/07 04:32:02;;;;;;;;;;;;;;;23.53;44.67;98871.16;5051978;28;20290;-78
2023/08/07 04:34:28;;;;;;;;;;;;;;;23.57;44.59;98858.75;5052137;28;19927;-76
2023/08/07 04:36:53;;;;;;;;;;;;;;;23.67;44.39;98874.06;5052195;28;19909;-78
2023/08/07 04:39:20;;;;;;;;;;;;;;;23.69;44.48;98874.56;5034001;28;19991;-78
2023/08/07 04:41:45;;;;;;;;;;;;;;;23.75;44.35;98873.47;5052147;28;19915;-79
2023/08/07 04:44:10;;;;;;;;;;;;;;;23.74;44.21;98875.34;5051903;28;19913;-77
2023/08/07 04:46:36;;;;;;;;;;;;;;;23.80;44.15;98868.06;5052220;28;19909;-78
2023/08/07 04:49:01;;;;;;;;;;;;;;;23.70;44.27;98885.09;5051805;28;19915;-78
2023/08/07 04:51:28;;;;;;;;;;;;;;;23.80;44.23;98888.81;5033976;28;20355;-79
2023/08/07 04:53:56;;;;;;;;;;;;;;;23.76;44.28;98883.97;5052156;28;19909;-79
2023/08/07 04:56:21;;;;;;;;;;;;;;;23.84;43.98;98882.59;5051711;28;19916;-78
2023/08/07 04:58:47;;;;;;;;;;;;;;;23.91;43.61;98898.44;5051562;28;19917;-77
2023/08/07 05:01:12;;;;;;;;;;;;;;;23.93;43.74;98905.16;5051765;28;19909;-78
2023/08/07 05:03:37;;;;;;;;;;;;;;;23.88;43.83;98904.41;5051577;28;19956;-77
2023/08/07 05:06:02;;;;;;;;;;;;;;;23.87;43.55;98895.50;5051497;28;20301;-77
2023/08/07 05:08:28;;;;;;;;;;;;;;;23.90;43.37;98911.13;5051673;28;19908;-78
2023/08/07 05:10:53;;;;;;;;;;;;;;;23.93;43.65;98898.97;5051723;28;19908;-78
2023/08/07 05:13:19;;;;;;;;;;;;;;;23.96;43.59;98903.81;5033561;28;19916;-78
2023/08/07 05:15:46;;;;;;;;;;;;;;;23.96;43.71;98912.69;5051258;28;19909;-78
2023/08/07 05:18:12;;;;;;;;;;;;;;;24.01;43.50;98926.16;5051300;28;19909;-79
2023/08/07 05:20:37;;;;;;;;;;;;;;;24.01;43.39;98909.97;5051257;28;20403;-77
2023/08/07 05:23:02;;;;;;;;;;;;;;;24.02;43.71;98913.47;5051415;28;19916;-78
2023/08/07 05:25:27;;;;;;;;;;;;;;;24.01;43.71;98918.06;5033308;28;19962;-78
2023/08/07 05:27:53;;;;;;;;;;;;;;;23.96;43.51;98909.19;5051445;28;19916;-78
2023/08/07 05:30:18;;;;;;;;;;;;;;;24.03;43.77;98923.97;5051278;28;19908;-78
2023/08/07 05:32:43;;;;;;;;;;;;;;;24.04;43.53;98914.78;5051340;28;19910;-77
2023/08/07 05:35:09;;;;;;;;;;;;;;;24.09;43.59;98917.44;5050008;28;20006;-77
2023/08/07 05:37:34;;;;;;;;;;;;;;;24.19;43.38;98923.84;5051354;28;19908;-77
2023/08/07 05:40:00;;;;;;;;;;;;;;;24.24;43.36;98918.41;5052517;28;19913;-78
2023/08/07 05:42:25;;;;;;;;;;;;;;;24.31;43.19;98932.41;5061657;28;19908;-77
2023/08/07 05:44:51;;;;;;;;;;;;;;;24.28;43.17;98928.38;5073805;28;19935;-77
2023/08/07 05:47:16;;;;;;;;;;;;;;;24.37;42.86;98939.38;5055531;28;19975;-77
2023/08/07 05:49:41;;;;;;;;;;;;;;;24.37;42.65;98940.19;5053842;28;19909;-77
2023/08/07 05:52:07;;;;;;;;;;;;;;;24.32;42.08;98951.03;5055289;28;20378;-78
2023/08/07 05:54:32;;;;;;;;;;;;;;;24.32;41.97;98939.41;5055027;28;19962;-78
2023/08/07 05:56:57;;;;;;;;;;;;;;;24.33;42.00;98947.22;5054743;28;19916;-77
2023/08/07 05:59:23;;;;;;;;;;;;;;;24.26;42.22;98946.72;5037211;28;19916;-76
2023/08/07 06:01:48;;;;;;;;;;;;;;;24.38;42.21;98949.88;5037158;28;20003;-78
2023/08/07 06:04:13;;;;;;;;;;;;;;;24.46;42.36;98940.38;5055043;28;19919;-77
2023/08/07 06:06:39;;;;;;;;;;;;;;;24.50;42.15;98946.00;5063893;28;19908;-77
2023/08/07 06:09:06;;;;;;;;;;;;;;;24.54;41.98;98960.59;5066199;28;19908;-76
2023/08/07 06:11:31;;;;;;;;;;;;;;;24.53;41.41;98951.69;5054627;28;19909;-77
2023/08/07 06:13:56;;;;;;;;;;;;;;;24.58;41.32;98948.94;5036785;28;19916;-78
2023/08/07 06:16:22;;;;;;;;;;;;;;;24.63;41.48;98953.47;5054646;28;19987;-77
2023/08/07 06:18:47;;;;;;;;;;;;;;;24.77;41.80;98951.72;5026078;28;19952;-77
2023/08/07 06:21:12;;;;;;;;;;;;;;;24.87;41.83;98953.50;5054377;28;20397;-78
2023/08/07 06:23:38;;;;;;;;;;;;;;;24.94;41.04;98956.69;5053202;28;19912;-76
2023/08/07 06:26:04;;;;;;;;;;;;;;;24.99;40.97;98948.56;5043639;28;20020;-77
2023/08/07 06:28:33;;;;;;;;;;;;;;;25.04;40.38;98945.78;5035988;28;20034;-78
2023/08/07 06:31:02;;;;;;;;;;;;;;;25.16;41.02;98954.31;5053804;28;19961;-78
2023/08/07 06:33:27;;;;;;;;;;;;;;;25.20;40.24;98957.22;5053915;28;20378;-78
2023/08/07 06:35:52;;;;;;;;;;;;;;;25.21;39.53;98948.84;5053645;28;19968;-77
2023/08/07 06:38:18;;;;;;;;;;;;;;;25.30;40.52;98949.03;5053449;28;20385;-77
2023/08/07 06:40:44;;;;;;;;;;;;;;;25.40;39.95;98946.22;5042458;28;19916;-77
2023/08/07 06:43:09;;;;;;;;;;;;;;;25.50;40.00;98945.28;5034214;28;19916;-78
2023/08/07 06:45:34;;;;;;;;;;;;;;;25.55;40.19;98953.31;5052100;28;19912;-78
2023/08/07 06:48:00;;;;;;;;;;;;;;;25.57;38.99;98954.63;5053792;28;19919;-77
2023/08/07 06:50:25;;;;;;;;;;;;;;;25.56;39.19;98952.22;5053628;28;20305;-76
2023/08/07 06:52:50;;;;;;;;;;;;;;;25.69;39.72;98950.72;5035456;28;20388;-79
2023/08/07 06:55:16;;;;;;;;;;;;;;;25.71;39.60;98949.34;5053502;28;19909;-78
2023/08/07 06:57:41;;;;;;;;;;;;;;;25.81;39.52;98951.91;5042211;28;20386;-78
2023/08/07 07:00:07;;;;;;;;;;;;;;;25.85;38.24;98949.41;5035424;28;19917;-77
2023/08/07 07:02:32;;;;;;;;;;;;;;;25.92;39.25;98950.66;5041072;28;19916;-78
2023/08/07 07:04:57;;;;;;;;;;;;;;;25.93;37.44;98954.16;5053320;28;19913;-77
2023/08/07 07:07:23;;;;;;;;;;;;;;;26.06;37.32;98956.16;5026701;28;20320;-77
2023/08/07 07:09:48;;;;;;;;;;;;;;;26.20;37.42;98965.16;5033481;28;19909;-77
2023/08/07 07:12:13;;;;;;;;;;;;;;;26.26;38.18;98960.47;5044028;28;19916;-78
2023/08/07 07:14:38;;;;;;;;;;;;;;;26.30;37.48;98958.75;5053377;28;19905;-77
2023/08/07 07:17:04;;;;;;;;;;;;;;;26.45;38.26;98968.56;5053306;28;20377;-78
2023/08/07 07:19:29;;;;;;;;;;;;;;;26.53;38.06;98966.00;5053706;28;19972;-78
2023/08/07 07:21:54;;;;;;;;;;;;;;;26.58;37.06;98963.19;5053279;28;19909;-78
2023/08/07 07:24:19;;;;;;;;;;;;;;;26.62;35.40;98966.09;5045745;28;20016;-79
2023/08/07 07:26:45;;;;;;;;;;;;;;;26.65;35.80;98968.22;5034590;28;19909;-77
2023/08/07 07:29:10;;;;;;;;;;;;;;;26.73;35.91;98985.69;5033250;28;19936;-76
2023/08/07 07:31:35;;;;;;;;;;;;;;;26.71;36.45;98991.41;5052725;28;19947;-78
2023/08/07 07:34:01;;;;;;;;;;;;;;;26.69;35.93;98971.94;5053107;28;20444;-78
2023/08/07 07:36:26;;;;;;;;;;;;;;;26.76;34.49;98980.50;5052960;28;19908;-78
2023/08/07 07:38:51;;;;;;;;;;;;;;;26.79;36.38;98981.81;5051810;28;19913;-76
2023/08/07 07:41:17;;;;;;;;;;;;;;;26.78;34.38;98977.50;5052720;28;20003;-77
2023/08/07 07:43:42;;;;;;;;;;;;;;;26.85;36.65;98981.44;5050131;28;19913;-78
2023/08/07 07:46:08;;;;;;;;;;;;;;;26.98;36.10;98968.22;5049620;28;19913;-78
2023/08/07 07:48:33;;;;;;;;;;;;;;;27.02;35.22;98969.25;5052294;28;20302;-78
2023/08/07 07:50:59;;;;;;;;;;;;;;;27.02;34.61;98961.13;5053036;28;19965;-77
2023/08/07 07:53:24;;;;;;;;;;;;;;;27.06;34.39;98965.63;5052778;28;20362;-77
2023/08/07 07:55:50;;;;;;;;;;;;;;;27.20;35.24;98969.16;5050967;28;20003;-78
2023/08/07 07:58:15;;;;;;;;;;;;;;;27.27;34.76;98973.38;5052258;28;19919;-78
2023/08/07 08:00:40;;;;;;;;;;;;;;;27.29;34.65;98976.56;5051815;28;20000;-76
2023/08/07 08:03:05;;;;;;;;;;;;;;;27.33;34.64;98972.16;5048518;28;19916;-77
2023/08/07 08:05:31;;;;;;;;;;;;;;;27.43;34.21;98971.94;5029007;28;20011;-77
2023/08/07 08:07:57;;;;;;;;;;;;;;;27.45;34.24;98975.16;5049077;28;20381;-78
2023/08/07 08:10:22;;;;;;;;;;;;;;;27.46;33.55;98966.72;5049807;28;19919;-76
2023/08/07 08:12:51;;;;;;;;;;;;;;;27.52;33.57;98970.16;5051566;28;19908;-78
2023/08/07 08:15:16;;;;;;;;;;;;;;;27.50;33.86;98958.81;5051307;28;20407;-78
2023/08/07 08:17:41;;;;;;;;;;;;;;;27.60;33.21;98960.50;5032870;28;19916;-77
2023/08/07 08:20:07;;;;;;;;;;;;;;;27.72;33.42;98964.31;5052429;28;19916;-76
2023/08/07 08:22:33;;;;;;;;;;;;;;;27.80;32.96;98977.19;5048407;28;19917;-77
2023/08/07 08:24:59;;;;;;;;;;;;;;;27.88;32.13;98964.00;5031074;28;19916;-76
2023/08/07 08:27:25;;;;;;;;;;;;;;;27.95;32.35;98973.31;5033671;28;19916;-77
2023/08/07 08:29:50;;;;;;;;;;;;;;;28.02;32.30;98970.19;5051279;28;19955;-79
2023/08/07 08:32:15;;;;;;;;;;;;;;;28.15;32.64;98966.63;5050951;28;20511;-77
2023/08/07 08:34:40;;;;;;;;;;;;;;;28.28;32.40;98956.88;5052007;28;19912;-78
2023/08/07 08:37:06;;;;;;;;;;;;;;;28.41;32.05;98962.22;5034112;28;19908;-77
2023/08/07 08:39:31;;;;;;;;;;;;;;;28.52;31.84;98962.78;5033444;28;19915;-76
2023/08/07 08:41:57;;;;;;;;;;;;;;;28.64;32.08;98964.91;5030788;28;20369;-78
2023/08/07 08:44:24;;;;;;;;;;;;;;;28.68;31.65;98968.63;5051837;28;19934;-77
2023/08/07 08:46:53;;;;;;;;;;;;;;;28.67;31.57;98975.16;5047564;28;19970;-78
2023/08/07 08:49:22;;;;;;;;;;;;;;;28.77;30.63;98964.03;5024944;28;20000;-77
2023/08/07 08:51:48;;;;;;;;;;;;;;;28.86;30.92;98973.06;5033126;28;19920;-77
2023/08/07 08:54:14;;;;;;;;;;;;;;;28.92;31.27;98957.41;5060318;28;19916;-77
2023/08/07 08:56:39;;;;;;;;;;;;;;;29.02;31.28;98979.72;5056640;28;19912;-77
2023/08/07 08:59:05;;;;;;;;;;;;;;;29.17;30.02;98955.94;5046601;28;19917;-78
2023/08/07 09:01:30;;;;;;;;;;;;;;;29.28;30.19;98959.97;5031771;28;19971;-77
2023/08/07 09:03:56;;;;;;;;;;;;;;;29.37;30.62;98955.38;5018520;28;19916;-78
2023/08/07 09:06:21;;;;;;;;;;;;;;;29.56;30.80;98953.19;5047135;28;19935;-76
2023/08/07 09:08:47;;;;;;;;;;;;;;;29.75;30.31;98950.22;5051885;28;19912;-76
2023/08/07 09:11:13;;;;;;;;;;;;;;;29.90;29.11;98947.03;5051997;28;19915;-75
2023/08/07 09:13:40;;;;;;;;;;;;;;;30.08;29.85;98939.69;5047475;28;20326;-77
2023/08/07 09:16:07;;;;;;;;;;;;;;;30.19;29.61;98953.78;5022936;28;20290;-79
2023/08/07 09:18:36;;;;;;;;;;;;;;;30.24;27.96;98948.16;5044331;28;19915;-77
2023/08/07 09:21:01;;;;;;;;;;;;;;;30.32;27.98;98937.25;5067864;28;20309;-77
2023/08/07 09:23:26;;;;;;;;;;;;;;;30.44;28.00;98936.59;5055937;28;19916;-76
2023/08/07 09:26:04;;;;;;;;;;;;;;;30.66;28.67;98946.53;5055300;28;20444;-78
2023/08/07 09:28:31;;;;;;;;;;;;;;;30.91;27.14;98926.56;5055600;28;19908;-76
2023/08/07 09:30:57;;;;;;;;;;;;;;;31.10;27.22;98936.25;5052595;28;19912;-76
2023/08/07 09:33:26;;;;;;;;;;;;;;;31.24;26.68;98942.34;5055250;28;20366;-76
2023/08/07 09:35:52;;;;;;;;;;;;;;;31.25;27.65;98947.47;5046966;28;19926;-77
2023/08/07 09:38:17;;;;;;;;;;;;;;;31.18;25.69;98938.97;5041169;28;19977;-77
2023/08/07 09:40:43;;;;;;;;;;;;;;;31.19;26.95;98940.56;5031723;28;19912;-76
2023/08/07 09:43:08;;;;;;;;;;;;;;;31.38;24.68;98936.66;5053970;28;19919;-77
2023/08/07 09:45:36;;;;;;;;;;;;;;;31.51;24.73;98935.59;5054665;28;19923;-78
2023/08/07 09:48:01;;;;;;;;;;;;;;;31.69;26.31;98936.28;5040308;28;19980;-76
2023/08/07 09:50:27;;;;;;;;;;;;;;;31.86;25.53;98934.25;5017010;28;19936;-76
2023/08/07 09:52:53;;;;;;;;;;;;;;;32.07;24.90;98933.47;5037338;28;19920;-77
2023/08/07 09:55:18;;;;;;;;;;;;;;;32.25;26.22;98937.66;5035627;28;19917;-77
2023/08/07 09:57:43;;;;;;;;;;;;;;;32.33;25.00;98934.03;5042649;28;19913;-78
2023/08/07 10:00:12;;;;;;;;;;;;;;;32.45;25.97;98930.53;5027931;28;19916;-77
2023/08/07 10:02:37;;;;;;;;;;;;;;;32.60;23.41;98921.69;5053793;28;19936;-77
2023/08/07 10:05:05;;;;;;;;;;;;;;;32.62;25.24;98924.88;5053593;28;19952;-77
2023/08/07 10:07:30;;;;;;;;;;;;;;;32.85;24.18;98928.84;5052672;28;19912;-78
2023/08/07 10:09:56;;;;;;;;;;;;;;;33.13;25.05;98931.72;5054329;28;19966;-78
2023/08/07 10:12:21;;;;;;;;;;;;;;;33.21;25.61;98924.53;5049387;28;19992;-77
2023/08/07 10:14:48;;;;;;;;;;;;;;;33.33;25.12;98932.75;5054321;28;19909;-77
2023/08/07 10:17:13;;;;;;;;;;;;;;;33.35;23.62;98911.31;5049870;28;19909;-77
2023/08/07 10:19:38;;;;;;;;;;;;;;;33.55;24.66;98911.53;5016822;28;19916;-76
2023/08/07 10:22:05;;;;;;;;;;;;;;;33.73;24.62;98905.44;5034258;28;19951;-76
2023/08/07 10:24:30;;;;;;;;;;;;;;;33.91;24.24;98910.66;5041121;28;19916;-77
2023/08/07 10:26:56;;;;;;;;;;;;;;;34.06;23.79;98901.69;5034056;28;19986;-77
2023/08/07 10:29:23;;;;;;;;;;;;;;;34.28;23.58;98906.63;5053460;28;20404;-77
2023/08/07 10:31:52;;;;;;;;;;;;;;;34.49;23.87;98897.41;5054117;28;19998;-74
2023/08/07 10:34:18;;;;;;;;;;;;;;;34.63;23.71;98895.81;5035740;28;19915;-76
2023/08/07 10:36:44;;;;;;;;;;;;;;;34.79;23.16;98898.56;5035759;28;19916;-77
2023/08/07 10:39:10;;;;;;;;;;;;;;;34.95;23.53;98893.13;5035898;28;19908;-77
2023/08/07 10:41:39;;;;;;;;;;;;;;;35.22;22.45;98897.69;5047938;28;19913;-77
2023/08/07 10:44:05;;;;;;;;;;;;;;;35.35;22.77;98901.16;5034936;28;19917;-77
2023/08/07 10:46:46;;;;;;;;;;;;;;;35.31;23.11;98898.28;5035362;28;19923;-76
2023/08/07 10:49:29;;;;;;;;;;;;;;;35.52;23.45;98898.00;5026088;28;19927;-75
2023/08/07 10:51:55;;;;;;;;;;;;;;;35.68;23.17;98889.72;5015970;28;19952;-77
2023/08/07 10:54:20;;;;;;;;;;;;;;;35.83;22.47;98886.13;5044176;28;19921;-77
2023/08/07 10:56:52;;;;;;;;;;;;;;;36.07;21.92;98885.03;5033610;28;20006;-76
2023/08/07 10:59:17;;;;;;;;;;;;;;;36.36;21.60;98891.88;5030978;28;19916;-76
2023/08/07 11:01:43;;;;;;;;;;;;;;;36.42;22.30;98886.91;5051861;28;20003;-78
2023/08/07 11:04:12;;;;;;;;;;;;;;;36.51;21.16;98887.47;5052910;28;19916;-76
2023/08/07 11:06:38;;;;;;;;;;;;;;;36.55;22.28;98883.59;5053503;28;20379;-77
2023/08/07 11:09:05;;;;;;;;;;;;;;;36.71;21.31;98874.44;5034748;28;19920;-78
2023/08/07 11:11:40;;;;;;;;;;;;;;;36.82;22.15;98872.69;5053233;28;19913;-75
2023/08/07 11:14:09;;;;;;;;;;;;;;;36.96;21.17;98875.66;5053221;28;19909;-77
2023/08/07 11:16:35;;;;;;;;;;;;;;;37.08;21.28;98877.41;5035923;28;19915;-77
2023/08/07 11:19:00;;;;;;;;;;;;;;;37.10;22.37;98869.56;5053659;28;19913;-77
2023/08/07 11:21:26;;;;;;;;;;;;;;;37.09;22.07;98862.47;5049129;28;20016;-77
2023/08/07 11:23:51;;;;;;;;;;;;;;;37.14;20.54;98868.44;5046858;28;20361;-75
2023/08/07 11:26:17;;;;;;;;;;;;;;;37.21;21.29;98859.53;5044026;28;19917;-75
2023/08/07 11:28:42;;;;;;;;;;;;;;;37.22;22.87;98845.38;5052548;28;20003;-75
2023/08/07 11:31:08;;;;;;;;;;;;;;;37.35;21.20;98842.44;5052619;28;19952;-75
2023/08/07 11:33:35;;;;;;;;;;;;;;;37.45;21.49;98847.28;5043790;28;19991;-78
2023/08/07 11:36:01;;;;;;;;;;;;;;;37.53;21.13;98851.72;5047138;28;19917;-77
2023/08/07 11:38:30;;;;;;;;;;;;;;;37.67;22.08;98843.63;5045980;28;20316;-77
2023/08/07 11:41:05;;;;;;;;;;;;;;;37.77;21.94;98848.50;5051983;28;19947;-76
2023/08/07 11:43:31;;;;;;;;;;;;;;;37.84;20.61;98848.56;5033061;28;19924;-76
2023/08/07 11:45:57;;;;;;;;;;;;;;;37.85;20.74;98838.34;5044937;28;19921;-76
2023/08/07 11:48:26;;;;;;;;;;;;;;;37.91;22.26;98833.31;5034824;28;19995;-75
2023/08/07 11:50:52;;;;;;;;;;;;;;;38.05;22.23;98838.97;5032363;28;19916;-77
2023/08/07 11:53:17;;;;;;;;;;;;;;;38.00;21.59;98836.56;5032812;28;20367;-77
2023/08/07 11:56:04;;;;;;;;;;;;;;;37.94;22.01;98835.31;5040208;28;19909;-77
2023/08/07 11:58:39;;;;;;;;;;;;;;;38.07;22.05;98836.63;5033934;28;19917;-76
2023/08/07 12:01:19;;;;;;;;;;;;;;;38.20;21.44;98829.69;5150787;27;19955;-76
2023/08/07 12:03:51;;;;;;;;;;;;;;;38.24;21.96;98822.25;5150800;27;19966;-76
2023/08/07 12:06:17;;;;;;;;;;;;;;;38.30;21.96;98830.97;5150842;27;19923;-76
2023/08/07 12:08:42;;;;;;;;;;;;;;;38.40;21.56;98828.31;5150920;27;19911;-76
2023/08/07 12:11:09;;;;;;;;;;;;;;;38.54;20.61;98821.31;5150616;27;20426;-76
2023/08/07 12:13:36;;;;;;;;;;;;;;;38.56;21.52;98821.72;5150750;27;19911;-77
2023/08/07 12:16:05;;;;;;;;;;;;;;;38.58;19.94;98817.41;5150326;27;20015;-77
2023/08/07 12:18:31;;;;;;;;;;;;;;;38.65;21.27;98820.28;5126929;27;20293;-75
2023/08/07 12:21:06;;;;;;;;;;;;;;;38.84;20.37;98821.19;5146200;27;19920;-76
2023/08/07 12:23:34;;;;;;;;;;;;;;;38.81;22.13;98824.72;5160290;27;19911;-75
2023/08/07 12:25:59;;;;;;;;;;;;;;;38.85;21.74;98815.31;5139354;27;19911;-77
2023/08/07 12:28:25;;;;;;;;;;;;;;;38.78;21.30;98813.28;5111477;28;20281;-79
2023/08/07 12:30:50;;;;;;;;;;;;;;;38.67;21.63;98815.19;5129960;28;19947;-76
2023/08/07 12:33:16;;;;;;;;;;;;;;;38.67;21.22;98808.88;5129673;28;19955;-76
2023/08/07 12:35:41;;;;;;;;;;;;;;;38.71;20.64;98809.69;5129538;28;19973;-77
2023/08/07 12:38:08;;;;;;;;;;;;;;;38.67;20.50;98811.63;5132750;27;19955;-76
2023/08/07 12:40:35;;;;;;;;;;;;;;;38.67;19.84;98817.16;5135400;27;19927;-77
2023/08/07 12:43:01;;;;;;;;;;;;;;;38.83;20.70;98814.09;5131803;27;19915;-79